createdAt,value
2018-11-29T00:00:35.750Z,22.22
2018-11-29T00:03:04.774Z,22.22
2018-11-29T00:05:33.545Z,22.22
2018-11-29T00:08:02.252Z,22.21
2018-11-29T00:10:30.910Z,22.22
2018-11-29T00:12:59.574Z,22.22
2018-11-29T00:15:28.447Z,22.21
2018-11-29T00:17:57.131Z,22.22
2018-11-29T00:20:25.815Z,22.20
2018-11-29T00:22:54.479Z,22.22
2018-11-29T00:25:23.196Z,22.21
2018-11-29T00:27:51.909Z,22.21
2018-11-29T00:30:21.676Z,22.22
2018-11-29T00:32:51.068Z,22.21
2018-11-29T00:35:19.829Z,22.21
2018-11-29T00:37:48.607Z,22.21
2018-11-29T00:40:19.120Z,22.22
2018-11-29T00:42:47.784Z,22.21
2018-11-29T00:45:18.549Z,22.20
2018-11-29T00:47:47.854Z,22.20
2018-11-29T00:50:17.252Z,22.22
2018-11-29T00:52:46.833Z,22.21
2018-11-29T00:55:16.633Z,22.20
2018-11-29T00:57:45.308Z,22.21
2018-11-29T01:00:28.739Z,22.21
2018-11-29T01:02:57.391Z,22.20
2018-11-29T01:05:26.023Z,22.19
2018-11-29T01:07:54.723Z,22.19
2018-11-29T01:10:23.403Z,22.19
2018-11-29T01:12:52.276Z,22.20
2018-11-29T01:15:22.048Z,22.19
2018-11-29T01:17:51.410Z,22.20
2018-11-29T01:20:21.308Z,22.20
2018-11-29T01:22:50.071Z,22.20
2018-11-29T01:25:18.960Z,22.19
2018-11-29T01:27:49.537Z,22.19
2018-11-29T01:30:19.211Z,22.20
2018-11-29T01:32:47.963Z,22.21
2018-11-29T01:35:18.685Z,22.20
2018-11-29T01:37:47.421Z,22.20
2018-11-29T01:40:18.805Z,22.20
2018-11-29T01:42:48.924Z,22.20
2018-11-29T01:45:17.552Z,22.20
2018-11-29T01:47:46.242Z,22.19
2018-11-29T01:50:15.050Z,22.19
2018-11-29T01:52:43.799Z,22.20
2018-11-29T01:55:12.485Z,22.20
2018-11-29T01:57:41.171Z,22.19
2018-11-29T02:00:12.671Z,22.19
2018-11-29T02:02:41.358Z,22.19
2018-11-29T02:05:11.073Z,22.19
2018-11-29T02:07:39.779Z,22.19
2018-11-29T02:10:18.710Z,22.18
2018-11-29T02:12:47.408Z,22.17
2018-11-29T02:42:04.034Z,22.01
2018-11-29T02:44:33.122Z,22.01
2018-11-29T02:47:10.114Z,22.03
2018-11-29T02:49:48.240Z,22.04
2018-11-29T02:52:31.393Z,22.06
2018-11-29T02:55:13.269Z,22.07
2018-11-29T02:57:42.780Z,22.06
2018-11-29T03:00:16.653Z,22.08
2018-11-29T03:02:48.154Z,22.09
2018-11-29T03:05:19.711Z,22.09
2018-11-29T03:07:50.389Z,22.10
2018-11-29T03:10:24.640Z,22.10
2018-11-29T03:12:54.136Z,22.11
2018-11-29T03:15:23.809Z,22.11
2018-11-29T03:17:53.032Z,22.12
2018-11-29T03:20:22.614Z,22.12
2018-11-29T03:22:51.788Z,22.13
2018-11-29T03:25:21.226Z,22.12
2018-11-29T03:27:51.748Z,22.13
2018-11-29T03:30:37.444Z,22.13
2018-11-29T03:33:06.764Z,22.13
2018-11-29T03:35:35.815Z,22.13
2018-11-29T03:38:05.478Z,22.13
2018-11-29T03:40:37.085Z,22.13
2018-11-29T03:43:21.165Z,22.14
2018-11-29T03:45:57.975Z,22.13
2018-11-29T03:48:27.471Z,22.13
2018-11-29T03:50:56.569Z,22.13
2018-11-29T03:53:26.500Z,22.13
2018-11-29T03:55:56.737Z,22.14
2018-11-29T03:58:26.733Z,22.14
2018-11-29T04:00:56.804Z,22.13
2018-11-29T04:03:26.060Z,22.13
2018-11-29T04:05:55.135Z,22.13
2018-11-29T04:08:24.840Z,22.14
2018-11-29T04:10:54.439Z,22.13
2018-11-29T04:13:24.430Z,22.13
2018-11-29T04:15:59.339Z,22.12
2018-11-29T04:18:29.237Z,22.12
2018-11-29T04:20:58.980Z,22.13
2018-11-29T04:23:29.307Z,22.12
2018-11-29T04:25:59.386Z,22.11
2018-11-29T04:28:35.578Z,22.12
2018-11-29T04:31:06.744Z,22.11
2018-11-29T04:33:40.388Z,22.11
2018-11-29T04:36:11.271Z,22.11
2018-11-29T04:38:41.224Z,21.99
2018-11-29T04:41:11.764Z,22.10
2018-11-29T04:46:54.750Z,22.10
2018-11-29T04:49:24.115Z,22.07
2018-11-29T04:51:54.250Z,22.08
2018-11-29T04:54:31.757Z,22.06
2018-11-29T04:57:11.464Z,22.06
2018-11-29T05:02:51.791Z,22.05
2018-11-29T05:05:31.798Z,22.05
2018-11-29T05:08:10.645Z,22.05
2018-11-29T05:10:44.382Z,22.04
2018-11-29T05:16:00.316Z,22.04
2018-11-29T05:18:38.610Z,22.03
2018-11-29T05:21:17.557Z,22.03
2018-11-29T05:23:46.712Z,22.04
2018-11-29T05:26:21.919Z,22.03
2018-11-29T05:29:07.340Z,22.03
2018-11-29T05:31:45.199Z,22.03
2018-11-29T05:34:39.760Z,22.02
2018-11-29T05:37:32.835Z,22.00
2018-11-29T05:40:11.812Z,22.01
2018-11-29T05:43:07.861Z,21.99
2018-11-29T05:54:18.717Z,21.97
2018-11-29T06:06:50.052Z,21.92
2018-11-29T06:10:05.368Z,21.92
2018-11-29T06:16:19.396Z,21.91
2018-11-29T06:18:58.117Z,21.92
2018-11-29T06:21:47.077Z,21.91
2018-11-29T06:27:21.976Z,21.94
2018-11-29T06:30:02.988Z,21.93
2018-11-29T06:46:25.721Z,21.75
2018-11-29T06:52:45.570Z,21.72
2018-11-29T06:56:45.366Z,21.75
2018-11-29T07:06:51.396Z,21.86
2018-11-29T07:09:45.013Z,21.88
2018-11-29T07:12:32.245Z,21.89
2018-11-29T07:18:59.936Z,21.93
2018-11-29T07:24:58.987Z,21.95
2018-11-29T07:30:43.057Z,21.97
2018-11-29T07:33:38.413Z,21.99
2018-11-29T07:36:31.023Z,21.98
2018-11-29T07:40:12.368Z,22.00
2018-11-29T07:43:27.666Z,22.01
2018-11-29T07:46:25.591Z,22.02
2018-11-29T07:49:11.857Z,22.03
2018-11-29T07:52:09.865Z,22.04
2018-11-29T07:54:43.622Z,22.05
2018-11-29T07:57:41.248Z,22.06
2018-11-29T08:03:43.893Z,22.07
2018-11-29T08:06:15.728Z,22.07
2018-11-29T08:08:46.558Z,22.07
2018-11-29T08:11:16.645Z,22.08
2018-11-29T08:13:47.116Z,22.09
2018-11-29T08:16:32.001Z,22.09
2018-11-29T08:19:10.645Z,22.09
2018-11-29T08:21:50.653Z,22.09
2018-11-29T08:24:27.338Z,22.09
2018-11-29T08:29:38.862Z,22.08
2018-11-29T08:32:44.015Z,22.08
2018-11-29T08:35:34.535Z,22.07
2018-11-29T08:38:20.298Z,22.06
2018-11-29T08:40:50.158Z,22.06
2018-11-29T08:43:20.852Z,22.06
2018-11-29T08:48:58.389Z,22.06
2018-11-29T08:51:32.133Z,22.06
2018-11-29T08:54:14.262Z,22.05
2018-11-29T08:56:44.878Z,22.05
2018-11-29T09:00:07.452Z,22.05
2018-11-29T09:02:52.106Z,22.03
2018-11-29T09:05:23.911Z,22.03
2018-11-29T09:08:16.211Z,22.01
2018-11-29T09:10:49.990Z,22.01
2018-11-29T09:13:30.491Z,22.01
2018-11-29T09:16:10.701Z,22.01
2018-11-29T09:19:02.995Z,22.01
2018-11-29T09:21:42.912Z,22.01
2018-11-29T09:24:17.837Z,22.01
2018-11-29T09:26:55.276Z,22.00
2018-11-29T09:29:35.508Z,22.01
2018-11-29T09:32:14.729Z,22.00
2018-11-29T09:38:00.428Z,22.00
2018-11-29T09:40:40.636Z,21.98
2018-11-29T09:43:12.863Z,21.98
2018-11-29T09:45:49.743Z,21.99
2018-11-29T09:48:21.882Z,21.98
2018-11-29T09:50:59.735Z,21.98
2018-11-29T09:53:30.240Z,21.97
2018-11-29T09:58:53.763Z,21.98
2018-11-29T10:01:35.866Z,21.97
2018-11-29T10:04:16.408Z,21.96
2018-11-29T10:09:41.713Z,21.96
2018-11-29T10:12:22.639Z,21.96
2018-11-29T10:14:55.124Z,21.95
2018-11-29T10:17:24.692Z,21.95
2018-11-29T10:19:56.112Z,21.95
2018-11-29T10:22:28.481Z,21.95
2018-11-29T10:24:57.581Z,21.95
2018-11-29T10:27:27.817Z,21.94
2018-11-29T10:30:02.152Z,21.95
2018-11-29T10:32:49.965Z,21.94
2018-11-29T10:35:25.584Z,21.93
2018-11-29T10:37:58.541Z,21.93
2018-11-29T10:40:29.020Z,21.93
2018-11-29T10:42:59.903Z,21.93
2018-11-29T10:45:29.801Z,21.93
2018-11-29T10:47:59.445Z,21.93
2018-11-29T10:50:37.219Z,21.93
2018-11-29T10:53:22.877Z,21.92
2018-11-29T10:56:02.940Z,21.92
2018-11-29T10:58:34.666Z,21.91
2018-11-29T11:01:12.546Z,21.90
2018-11-29T11:03:42.896Z,21.89
2018-11-29T11:06:19.564Z,21.90
2018-11-29T11:08:54.270Z,21.90
2018-11-29T11:11:30.292Z,21.89
2018-11-29T11:14:09.145Z,21.90
2018-11-29T11:16:47.412Z,21.89
2018-11-29T11:22:11.037Z,21.88
2018-11-29T11:24:41.764Z,21.88
2018-11-29T11:27:13.710Z,21.88
2018-11-29T11:29:52.357Z,21.87
2018-11-29T11:35:08.318Z,21.88
2018-11-29T11:37:39.508Z,21.87
2018-11-29T11:40:25.974Z,21.87
2018-11-29T11:43:05.252Z,21.87
2018-11-29T11:45:33.904Z,21.87
2018-11-29T11:48:13.533Z,21.88
2018-11-29T11:50:44.560Z,21.88
2018-11-29T11:53:29.798Z,21.87
2018-11-29T11:56:00.688Z,21.87
2018-11-29T11:58:37.687Z,21.87
2018-11-29T12:01:09.239Z,21.87
2018-11-29T12:03:40.981Z,21.87
2018-11-29T12:06:19.820Z,21.87
2018-11-29T12:08:59.164Z,21.87
2018-11-29T12:11:31.865Z,21.87
2018-11-29T12:14:04.122Z,21.88
2018-11-29T12:16:36.073Z,21.86
2018-11-29T12:19:09.579Z,21.86
2018-11-29T12:24:17.082Z,21.86
2018-11-29T12:26:48.976Z,21.86
2018-11-29T12:29:20.196Z,21.86
2018-11-29T12:32:02.278Z,21.85
2018-11-29T12:34:44.418Z,21.85
2018-11-29T12:37:14.899Z,21.85
2018-11-29T12:39:46.551Z,21.84
2018-11-29T12:42:30.078Z,21.84
2018-11-29T12:45:00.780Z,21.83
2018-11-29T12:47:47.603Z,21.83
2018-11-29T12:50:19.736Z,21.83
2018-11-29T12:53:02.499Z,21.83
2018-11-29T12:55:40.193Z,21.82
2018-11-29T12:58:09.964Z,21.80
2018-11-29T13:00:44.715Z,21.81
2018-11-29T13:03:15.305Z,21.80
2018-11-29T13:05:44.898Z,21.78
2018-11-29T13:08:13.965Z,21.80
2018-11-29T13:10:47.912Z,21.80
2018-11-29T13:13:18.073Z,21.79
2018-11-29T13:15:57.729Z,21.79
2018-11-29T13:18:29.690Z,21.79
2018-11-29T13:21:06.848Z,21.78
2018-11-29T13:23:37.876Z,21.77
2018-11-29T13:26:12.843Z,21.77
2018-11-29T13:28:44.074Z,21.76
2018-11-29T13:31:23.864Z,21.76
2018-11-29T13:34:03.123Z,21.75
2018-11-29T13:36:33.992Z,21.75
2018-11-29T13:39:03.882Z,21.73
2018-11-29T13:41:36.007Z,21.74
2018-11-29T13:44:05.915Z,21.74
2018-11-29T13:46:50.773Z,21.73
2018-11-29T13:49:31.592Z,21.73
2018-11-29T13:52:02.013Z,21.73
2018-11-29T13:54:33.054Z,21.72
2018-11-29T13:57:03.211Z,21.71
2018-11-29T14:00:11.686Z,21.71
2018-11-29T14:02:47.250Z,21.70
2018-11-29T14:05:20.661Z,21.69
2018-11-29T14:07:51.143Z,21.68
2018-11-29T14:10:24.333Z,21.68
2018-11-29T14:13:11.762Z,21.69
2018-11-29T14:15:49.188Z,21.69
2018-11-29T14:18:21.818Z,21.67
2018-11-29T14:20:53.025Z,21.67
2018-11-29T14:23:24.539Z,21.67
2018-11-29T14:25:56.537Z,21.67
2018-11-29T14:28:38.137Z,21.68
2018-11-29T14:31:21.138Z,21.68
2018-11-29T14:33:54.649Z,21.68
2018-11-29T14:36:25.924Z,21.69
2018-11-29T14:38:56.519Z,21.69
2018-11-29T14:41:30.396Z,21.70
2018-11-29T14:44:03.183Z,21.71
2018-11-29T14:46:35.228Z,21.70
2018-11-29T14:49:14.756Z,21.71
2018-11-29T14:54:32.366Z,21.73
2018-11-29T14:57:05.330Z,21.73
2018-11-29T14:59:52.536Z,21.74
2018-11-29T15:02:27.085Z,21.74
2018-11-29T15:05:07.689Z,21.74
2018-11-29T15:07:39.702Z,21.74
2018-11-29T15:10:13.970Z,21.74
2018-11-29T15:12:47.676Z,21.75
2018-11-29T15:15:31.265Z,21.75
2018-11-29T15:18:15.303Z,21.76
2018-11-29T15:20:53.618Z,21.78
2018-11-29T15:23:28.051Z,21.79
2018-11-29T15:26:01.930Z,21.78
2018-11-29T15:28:46.171Z,21.79
2018-11-29T15:31:32.828Z,21.80
2018-11-29T15:34:14.588Z,21.80
2018-11-29T15:36:47.893Z,21.81
2018-11-29T15:39:27.694Z,21.82
2018-11-29T15:42:06.924Z,21.82
2018-11-29T15:45:00.724Z,21.82
2018-11-29T15:47:33.756Z,21.83
2018-11-29T15:50:26.904Z,21.83
2018-11-29T15:53:01.438Z,21.83
2018-11-29T15:55:35.036Z,21.83
2018-11-29T15:58:14.148Z,21.84
2018-11-29T16:01:02.089Z,21.85
2018-11-29T16:03:42.204Z,21.86
2018-11-29T16:06:14.727Z,21.86
2018-11-29T16:11:40.923Z,21.88
2018-11-29T16:14:14.231Z,21.88
2018-11-29T16:16:48.722Z,21.89
2018-11-29T16:19:24.441Z,21.89
2018-11-29T16:21:57.527Z,21.90
2018-11-29T16:24:53.434Z,21.89
2018-11-29T16:27:27.420Z,21.91
2018-11-29T16:30:05.296Z,21.91
2018-11-29T16:32:54.132Z,21.92
2018-11-29T16:35:28.224Z,21.92
2018-11-29T16:38:18.725Z,21.94
2018-11-29T16:41:01.436Z,21.94
2018-11-29T16:43:47.707Z,21.94
2018-11-29T16:46:34.074Z,21.95
2018-11-29T16:49:11.106Z,21.96
2018-11-29T16:51:59.508Z,21.95
2018-11-29T16:54:37.933Z,21.97
2018-11-29T16:57:17.548Z,21.98
2018-11-29T17:00:08.556Z,21.99
2018-11-29T17:02:40.158Z,22.00
2018-11-29T17:05:13.446Z,22.01
2018-11-29T17:07:48.180Z,22.03
2018-11-29T17:10:19.341Z,22.04
2018-11-29T17:13:01.661Z,22.06
2018-11-29T17:15:31.801Z,22.07
2018-11-29T17:18:01.467Z,22.08
2018-11-29T17:20:31.089Z,22.11
2018-11-29T17:23:02.892Z,22.11
2018-11-29T17:25:45.780Z,22.12
2018-11-29T17:28:27.082Z,22.14
2018-11-29T17:31:02.907Z,22.15
2018-11-29T17:33:39.379Z,22.15
2018-11-29T17:36:09.962Z,22.17
2018-11-29T17:38:47.639Z,22.19
2018-11-29T17:41:18.887Z,22.20
2018-11-29T17:44:00.866Z,22.19
2018-11-29T17:46:35.279Z,22.21
2018-11-29T17:49:07.961Z,22.21
2018-11-29T17:51:39.947Z,22.23
2018-11-29T17:54:10.506Z,22.25
2018-11-29T17:56:50.575Z,22.23
2018-11-29T18:05:18.166Z,22.25
2018-11-29T18:07:52.642Z,22.26
2018-11-29T18:10:30.664Z,22.27
2018-11-29T18:13:12.782Z,22.28
2018-11-29T18:15:42.809Z,22.29
2018-11-29T18:18:14.659Z,22.30
2018-11-29T18:20:43.953Z,22.31
2018-11-29T18:23:14.484Z,22.33
2018-11-29T18:25:52.612Z,22.32
2018-11-29T18:28:23.404Z,22.34
2018-11-29T18:31:01.563Z,22.34
2018-11-29T18:33:34.945Z,22.36
2018-11-29T18:36:14.125Z,22.36
2018-11-29T18:38:47.507Z,22.37
2018-11-29T18:41:21.802Z,22.38
2018-11-29T18:43:53.949Z,22.38
2018-11-29T18:46:36.535Z,22.39
2018-11-29T18:49:18.610Z,22.39
2018-11-29T18:52:03.454Z,22.38
2018-11-29T18:54:34.752Z,22.38
2018-11-29T18:57:05.639Z,22.38
2018-11-29T19:00:07.298Z,22.39
2018-11-29T19:02:41.172Z,22.40
2018-11-29T19:07:53.152Z,22.40
2018-11-29T19:10:24.981Z,22.40
2018-11-29T19:13:09.474Z,22.42
2018-11-29T19:15:52.490Z,22.41
2018-11-29T19:18:39.192Z,22.42
2018-11-29T19:21:31.437Z,22.42
2018-11-29T19:24:10.748Z,22.42
2018-11-29T19:26:43.306Z,22.42
2018-11-29T19:29:25.837Z,22.43
2018-11-29T19:34:45.733Z,22.43
2018-11-29T19:37:17.895Z,22.44
2018-11-29T19:39:52.418Z,22.45
2018-11-29T19:42:26.769Z,22.45
2018-11-29T19:45:10.115Z,22.45
2018-11-29T19:47:45.473Z,22.47
2018-11-29T19:50:21.907Z,22.46
2018-11-29T19:53:08.870Z,22.47
2018-11-29T19:55:55.214Z,22.46
2018-11-29T20:01:19.786Z,22.47
2018-11-29T20:03:55.792Z,22.46
2018-11-29T20:06:35.024Z,22.48
2018-11-29T20:09:10.118Z,22.48
2018-11-29T20:11:44.679Z,22.49
2018-11-29T20:14:19.762Z,22.50
2018-11-29T20:16:52.802Z,22.49
2018-11-29T20:19:31.754Z,22.50
2018-11-29T20:22:04.529Z,22.51
2018-11-29T20:24:39.879Z,22.51
2018-11-29T20:27:12.503Z,22.52
2018-11-29T20:29:42.279Z,22.53
2018-11-29T20:32:11.512Z,22.53
2018-11-29T20:34:52.850Z,22.54
2018-11-29T20:37:34.694Z,22.54
2018-11-29T20:40:23.293Z,22.54
2018-11-29T20:42:55.207Z,22.54
2018-11-29T20:45:38.653Z,22.54
2018-11-29T20:48:16.146Z,22.53
2018-11-29T20:50:47.590Z,22.54
2018-11-29T20:53:19.700Z,22.54
2018-11-29T20:56:14.510Z,22.53
2018-11-29T20:58:44.083Z,22.53
2018-11-29T21:03:49.641Z,22.53
2018-11-29T21:06:19.428Z,22.53
2018-11-29T21:08:49.574Z,22.53
2018-11-29T21:11:24.284Z,22.53
2018-11-29T21:13:59.240Z,22.51
2018-11-29T21:20:41.017Z,22.54
2018-11-29T21:23:18.658Z,22.55
2018-11-29T21:25:51.660Z,22.56
2018-11-29T21:28:23.133Z,22.59
2018-11-29T21:37:18.797Z,22.60
2018-11-29T21:39:56.397Z,22.60
2018-11-29T21:46:32.642Z,22.63
2018-11-29T21:49:12.246Z,22.65
2018-11-29T21:51:45.014Z,22.66
2018-11-29T21:54:58.505Z,22.68
2018-11-29T22:13:28.404Z,22.68
2018-11-29T22:16:31.820Z,22.70
2018-11-29T22:19:06.985Z,22.71
2018-11-29T22:21:46.231Z,22.72
2018-11-29T22:24:35.603Z,22.76
2018-11-29T22:27:10.643Z,22.77
2018-11-29T22:30:42.318Z,22.78
2018-11-29T22:33:39.146Z,22.80
2018-11-29T22:36:37.610Z,22.80
2018-11-29T22:39:20.996Z,22.80
2018-11-29T22:45:53.827Z,22.83
2018-11-29T22:48:22.567Z,22.82
2018-11-29T22:50:51.870Z,22.84
2018-11-29T22:53:20.629Z,22.85
2018-11-29T22:55:49.334Z,22.85
2018-11-29T22:58:18.036Z,22.86
2018-11-29T23:00:53.453Z,22.87
2018-11-29T23:03:22.518Z,22.88
2018-11-29T23:05:51.186Z,22.89
2018-11-29T23:08:19.876Z,22.91
2018-11-29T23:10:48.812Z,22.90
2018-11-29T23:13:17.583Z,22.91
2018-11-29T23:15:46.258Z,22.92
2018-11-29T23:18:15.000Z,22.92
2018-11-29T23:20:43.791Z,22.95
2018-11-29T23:23:12.642Z,22.96
2018-11-29T23:25:41.359Z,22.96
2018-11-29T23:28:10.104Z,22.97
2018-11-29T23:30:38.784Z,22.97
2018-11-29T23:33:07.455Z,22.99
2018-11-29T23:35:36.204Z,23.00
2018-11-29T23:38:05.166Z,23.00
2018-11-29T23:40:33.893Z,23.00
2018-11-29T23:43:02.876Z,23.01
2018-11-29T23:45:31.597Z,23.02
2018-11-29T23:48:00.300Z,23.02
2018-11-29T23:50:29.016Z,23.01
2018-11-29T23:52:57.747Z,23.01
2018-11-29T23:55:26.536Z,23.03
2018-11-29T23:57:55.340Z,23.03
